Time;durP1;ratioP1;P1;durP2;ratioP2;P2;SDS_P1;SDS_P2;PMS_P1;PMS_P2;Temp;Humidity;BMP_temperature;BMP_pressure;BME280_temperature;BME280_humidity;BME280_pressure;Samples;Min_cycle;Max_cycle;Signal;HPM_P1;HPM_P2
2024/01/31 00:01:09;;;;;;;12.32;1.70;;;6.90;99.90;;;;;;5062222;28;20191;-42
2024/01/31 00:03:34;;;;;;;8.82;1.60;;;6.90;99.90;;;;;;5061685;28;20205;-44
2024/01/31 00:06:02;;;;;;;8.75;1.90;;;6.90;99.90;;;;;;5061884;28;20194;-43
2024/01/31 00:08:27;;;;;;;9.30;1.92;;;6.90;99.90;;;;;;5061673;28;20183;-40
2024/01/31 00:10:53;;;;;;;13.82;1.77;;;6.90;99.90;;;;;;5061712;28;20703;-43
2024/01/31 00:13:19;;;;;;;10.55;1.83;;;7.00;99.90;;;;;;5060041;28;20226;-47
2024/01/31 00:15:45;;;;;;;6.43;1.33;;;6.90;99.90;;;;;;5060214;28;20285;-42
2024/01/31 00:18:11;;;;;;;9.15;1.52;;;6.90;99.90;;;;;;5061611;28;20207;-38
2024/01/31 00:20:36;;;;;;;8.27;1.80;;;7.00;99.90;;;;;;5061612;28;20631;-48
2024/01/31 00:23:02;;;;;;;8.32;1.48;;;7.00;99.90;;;;;;5061626;28;20626;-43
2024/01/31 00:25:28;;;;;;;8.52;1.75;;;7.00;99.90;;;;;;5061483;28;20247;-41
2024/01/31 00:27:53;;;;;;;6.63;1.60;;;7.00;99.90;;;;;;5061812;28;20221;-42
2024/01/31 00:30:19;;;;;;;15.18;1.92;;;6.90;99.90;;;;;;5060976;28;20547;-45
2024/01/31 00:32:45;;;;;;;10.55;1.63;;;6.90;99.90;;;;;;5061044;28;20261;-41
2024/01/31 00:35:11;;;;;;;7.40;1.38;;;7.00;99.90;;;;;;5061307;28;20209;-41
2024/01/31 00:37:37;;;;;;;7.60;1.77;;;7.00;99.90;;;;;;5060925;28;20194;-48
2024/01/31 00:40:05;;;;;;;9.20;1.60;;;7.00;99.90;;;;;;5061252;28;20247;-42
2024/01/31 00:42:31;;;;;;;10.23;1.55;;;6.90;99.90;;;;;;5060646;28;20190;-46
2024/01/31 00:44:57;;;;;;;8.85;1.50;;;7.00;99.90;;;;;;5060708;28;20212;-47
2024/01/31 00:47:23;;;;;;;6.63;1.42;;;7.00;99.90;;;;;;5060999;28;20888;-43
2024/01/31 00:49:49;;;;;;;12.85;1.63;;;6.90;99.90;;;;;;5061346;28;20214;-45
2024/01/31 00:52:16;;;;;;;10.00;1.55;;;7.00;99.90;;;;;;5060903;28;20194;-46
2024/01/31 00:54:42;;;;;;;8.40;1.45;;;6.90;99.90;;;;;;5060987;28;20244;-43
2024/01/31 00:57:08;;;;;;;10.80;1.70;;;7.00;99.90;;;;;;5061034;28;20190;-44
2024/01/31 00:59:34;;;;;;;9.85;1.70;;;7.00;99.90;;;;;;5057329;28;20270;-46
2024/01/31 01:02:00;;;;;;;8.68;1.45;;;7.00;99.90;;;;;;5061210;28;20615;-43
2024/01/31 01:04:25;;;;;;;6.20;1.30;;;7.00;99.90;;;;;;5060557;28;20191;-41
2024/01/31 01:06:51;;;;;;;8.90;1.38;;;7.00;99.90;;;;;;5059118;28;20256;-44
2024/01/31 01:09:17;;;;;;;7.68;1.63;;;7.00;99.90;;;;;;5059354;28;20186;-41
2024/01/31 01:11:42;;;;;;;6.60;1.20;;;7.00;99.90;;;;;;5060886;28;20205;-41
2024/01/31 01:14:09;;;;;;;7.07;1.48;;;7.00;99.90;;;;;;5060965;28;20224;-39
2024/01/31 01:16:35;;;;;;;11.13;1.40;;;7.00;99.90;;;;;;5060370;28;20206;-41
2024/01/31 01:19:01;;;;;;;6.57;1.33;;;7.00;99.90;;;;;;5058253;28;20182;-41
2024/01/31 01:21:26;;;;;;;8.07;1.48;;;7.00;99.90;;;;;;5060390;28;20189;-52
2024/01/31 01:23:52;;;;;;;5.22;1.50;;;7.00;99.90;;;;;;5060704;28;20206;-42
2024/01/31 01:26:18;;;;;;;7.82;1.27;;;7.00;99.90;;;;;;5060506;28;20191;-41
2024/01/31 01:28:43;;;;;;;13.40;1.42;;;7.00;99.90;;;;;;5060638;28;20245;-42
2024/01/31 01:31:10;;;;;;;5.80;1.42;;;7.00;99.90;;;;;;5060350;28;20199;-44
2024/01/31 01:33:36;;;;;;;4.68;1.52;;;7.00;99.90;;;;;;5060209;28;20222;-46
2024/01/31 01:36:03;;;;;;;7.22;1.35;;;6.90;99.90;;;;;;5061067;28;20911;-46
2024/01/31 01:38:29;;;;;;;4.88;1.20;;;7.00;99.90;;;;;;5058735;28;20199;-43
2024/01/31 01:40:55;;;;;;;6.70;1.27;;;6.90;99.90;;;;;;5060456;28;20195;-43
2024/01/31 01:43:23;;;;;;;4.80;1.23;;;6.90;99.90;;;;;;5060268;28;20288;-42
2024/01/31 01:45:50;;;;;;;9.88;1.42;;;7.00;99.90;;;;;;5045657;28;20277;-39
2024/01/31 01:48:16;;;;;;;5.15;1.15;;;6.90;99.90;;;;;;5060262;28;20209;-42
2024/01/31 01:50:42;;;;;;;9.88;1.48;;;6.90;99.90;;;;;;5092539;28;20198;-42
2024/01/31 01:53:08;;;;;;;8.25;2.15;;;6.90;99.90;;;;;;5064491;28;20194;-43
2024/01/31 01:55:35;;;;;;;8.00;1.50;;;6.90;99.90;;;;;;5064214;28;20193;-40
2024/01/31 01:58:01;;;;;;;10.95;1.98;;;6.80;99.90;;;;;;5061653;28;20212;-40
2024/01/31 02:00:28;;;;;;;3.85;1.38;;;6.90;99.90;;;;;;5063812;28;20669;-44
2024/01/31 02:02:53;;;;;;;10.18;1.60;;;6.80;99.90;;;;;;5064257;28;20591;-45
2024/01/31 02:05:20;;;;;;;9.77;1.65;;;6.80;99.90;;;;;;5063840;28;20183;-44
2024/01/31 02:07:45;;;;;;;8.40;1.73;;;6.70;99.90;;;;;;5064454;28;20213;-41
2024/01/31 02:10:11;;;;;;;8.20;2.08;;;6.70;99.90;;;;;;5063566;28;21245;-41
2024/01/31 02:12:37;;;;;;;6.30;1.70;;;6.70;99.90;;;;;;5062298;28;20222;-46
2024/01/31 02:15:03;;;;;;;5.53;1.70;;;6.70;99.90;;;;;;5063548;28;20193;-41
2024/01/31 02:17:30;;;;;;;7.40;1.50;;;6.70;99.90;;;;;;5062358;28;20697;-46
2024/01/31 02:19:55;;;;;;;9.60;1.70;;;6.70;99.90;;;;;;5063751;28;20543;-45
2024/01/31 02:22:21;;;;;;;8.38;1.48;;;6.60;99.90;;;;;;5063641;28;20202;-41
2024/01/31 02:24:47;;;;;;;9.50;1.73;;;6.60;99.90;;;;;;5063204;28;20194;-38
2024/01/31 02:27:12;;;;;;;5.22;1.52;;;6.50;99.90;;;;;;5063665;28;20239;-43
2024/01/31 02:29:38;;;;;;;11.30;1.50;;;6.50;99.90;;;;;;5064046;28;20269;-44
2024/01/31 02:32:06;;;;;;;10.20;1.80;;;6.50;99.90;;;;;;5063787;28;20190;-41
2024/01/31 02:34:32;;;;;;;3.78;1.35;;;6.50;99.90;;;;;;5063124;28;20202;-39
2024/01/31 02:36:57;;;;;;;5.00;1.20;;;6.40;99.90;;;;;;5063546;28;20186;-41
2024/01/31 02:39:24;;;;;;;8.85;1.60;;;6.40;99.90;;;;;;5062922;28;20186;-39
2024/01/31 02:41:51;;;;;;;7.00;1.50;;;6.40;99.90;;;;;;5063135;28;20620;-43
2024/01/31 02:44:18;;;;;;;8.75;1.60;;;6.30;99.90;;;;;;5063345;28;20210;-47
2024/01/31 02:46:44;;;;;;;7.45;1.50;;;6.30;99.90;;;;;;5063394;28;20636;-47
2024/01/31 02:49:10;;;;;;;7.65;1.48;;;6.30;99.90;;;;;;5062673;28;20225;-40
2024/01/31 02:51:36;;;;;;;6.50;1.60;;;6.30;99.90;;;;;;5045590;28;20202;-41
2024/01/31 02:54:01;;;;;;;6.47;1.60;;;6.30;99.90;;;;;;5093620;28;20210;-43
2024/01/31 02:56:27;;;;;;;7.22;1.67;;;6.20;99.90;;;;;;5062924;28;20183;-38
2024/01/31 02:58:53;;;;;;;9.43;1.90;;;6.20;99.90;;;;;;5062941;28;20191;-42
2024/01/31 03:01:18;;;;;;;7.95;1.75;;;6.20;99.90;;;;;;5062668;28;20187;-43
2024/01/31 03:03:44;;;;;;;5.18;1.42;;;6.20;99.90;;;;;;5062318;28;20517;-41
2024/01/31 03:06:11;;;;;;;10.40;1.80;;;6.20;99.90;;;;;;5063194;28;20664;-40
2024/01/31 03:08:36;;;;;;;9.63;1.73;;;6.20;99.90;;;;;;5062629;28;20206;-45
2024/01/31 03:11:02;;;;;;;10.98;1.77;;;6.20;99.90;;;;;;5026910;28;20252;-38
2024/01/31 03:13:28;;;;;;;4.68;1.45;;;6.20;99.90;;;;;;5061848;28;20230;-42
2024/01/31 03:15:53;;;;;;;9.85;1.67;;;6.30;99.90;;;;;;5062544;28;20277;-42
2024/01/31 03:18:19;;;;;;;5.35;1.40;;;6.30;99.90;;;;;;5062859;28;20251;-48
2024/01/31 03:20:45;;;;;;;4.30;1.40;;;6.30;99.90;;;;;;5062786;28;20190;-45
2024/01/31 03:23:11;;;;;;;5.95;1.60;;;6.20;99.90;;;;;;5062521;28;20320;-43
2024/01/31 03:25:36;;;;;;;12.55;2.13;;;6.30;99.90;;;;;;5062841;28;20222;-40
2024/01/31 03:28:02;;;;;;;10.18;1.92;;;6.20;99.90;;;;;;5062826;28;20194;-41
2024/01/31 03:30:28;;;;;;;5.13;1.45;;;6.20;99.90;;;;;;5062146;28;20252;-42
2024/01/31 03:32:53;;;;;;;7.47;1.60;;;6.20;99.90;;;;;;5061180;28;20245;-41
2024/01/31 03:35:19;;;;;;;9.02;1.80;;;6.20;99.90;;;;;;5062275;28;20216;-40
2024/01/31 03:37:45;;;;;;;6.15;1.50;;;6.20;99.90;;;;;;5061343;28;20202;-46
2024/01/31 03:40:11;;;;;;;6.32;1.55;;;6.20;99.90;;;;;;5077865;28;20222;-41
2024/01/31 03:42:37;;;;;;;8.70;1.77;;;6.20;99.90;;;;;;5061996;28;20270;-45
2024/01/31 03:45:04;;;;;;;9.45;1.67;;;6.20;99.90;;;;;;5043928;28;20190;-41
2024/01/31 03:47:30;;;;;;;7.18;1.27;;;6.20;99.90;;;;;;5062126;28;20202;-41
2024/01/31 03:49:56;;;;;;;5.25;1.45;;;6.20;99.90;;;;;;5062490;28;20194;-39
2024/01/31 03:52:24;;;;;;;6.70;1.73;;;6.20;99.90;;;;;;5061833;28;20202;-40
2024/01/31 03:54:49;;;;;;;9.35;1.45;;;6.30;99.90;;;;;;5062192;28;20762;-42
2024/01/31 03:57:15;;;;;;;8.40;1.77;;;6.20;99.90;;;;;;5061856;28;20194;-42
2024/01/31 03:59:41;;;;;;;9.35;1.50;;;6.30;99.90;;;;;;5061194;28;20193;-40
2024/01/31 04:02:06;;;;;;;7.18;1.45;;;6.20;99.90;;;;;;5060901;28;21161;-45
2024/01/31 04:04:32;;;;;;;9.43;1.63;;;6.20;99.90;;;;;;5061432;28;20678;-44
2024/01/31 04:06:58;;;;;;;8.40;1.80;;;6.20;99.90;;;;;;5061411;28;20677;-39
2024/01/31 04:09:23;;;;;;;4.38;1.40;;;6.20;99.90;;;;;;5061637;28;20198;-41
2024/01/31 04:11:49;;;;;;;6.32;1.50;;;6.10;99.90;;;;;;5061770;28;20211;-42
2024/01/31 04:14:15;;;;;;;6.78;1.67;;;6.10;99.90;;;;;;5075994;28;20245;-47
2024/01/31 04:16:40;;;;;;;3.45;1.30;;;6.00;99.90;;;;;;5060443;28;20186;-46
2024/01/31 04:19:07;;;;;;;7.38;1.58;;;5.90;99.90;;;;;;5061883;28;20562;-43
2024/01/31 04:21:32;;;;;;;8.10;1.90;;;5.80;99.90;;;;;;5061775;28;20174;-44
2024/01/31 04:23:58;;;;;;;11.05;2.00;;;5.70;99.90;;;;;;5061274;28;20190;-49
2024/01/31 04:26:24;;;;;;;9.95;1.58;;;5.70;99.90;;;;;;5059188;28;20194;-50
2024/01/31 04:28:50;;;;;;;7.38;1.58;;;5.60;99.90;;;;;;5061490;28;20194;-43
2024/01/31 04:31:16;;;;;;;7.47;1.77;;;5.50;99.90;;;;;;5061385;28;20752;-42
2024/01/31 04:33:42;;;;;;;9.73;2.05;;;5.50;99.90;;;;;;5061036;28;20205;-43
2024/01/31 04:36:08;;;;;;;9.52;1.80;;;5.40;99.90;;;;;;5060927;28;20200;-47
2024/01/31 04:38:34;;;;;;;12.73;1.88;;;5.40;99.90;;;;;;5059335;28;20190;-44
2024/01/31 04:41:01;;;;;;;7.75;1.45;;;5.30;99.90;;;;;;5061275;28;20740;-44
2024/01/31 04:43:27;;;;;;;9.98;1.88;;;5.30;99.90;;;;;;5060769;28;20187;-43
2024/01/31 04:45:54;;;;;;;7.68;1.40;;;5.30;99.90;;;;;;5060888;28;20190;-42
2024/01/31 04:48:20;;;;;;;9.68;1.55;;;5.20;99.90;;;;;;5061238;28;20205;-43
2024/01/31 04:50:45;;;;;;;7.90;1.63;;;5.20;99.90;;;;;;5061183;28;20202;-43
2024/01/31 04:53:11;;;;;;;8.98;1.70;;;5.20;99.90;;;;;;5060355;28;20295;-44
2024/01/31 04:55:37;;;;;;;4.72;1.40;;;5.20;99.90;;;;;;5061266;28;20239;-39
2024/01/31 04:58:03;;;;;;;9.02;1.63;;;5.20;99.90;;;;;;5060744;28;20191;-46
2024/01/31 05:00:28;;;;;;;5.50;1.40;;;5.20;99.90;;;;;;5060585;28;20202;-43
2024/01/31 05:02:54;;;;;;;9.52;1.40;;;5.20;99.90;;;;;;5061294;28;21008;-43
2024/01/31 05:05:20;;;;;;;10.50;1.48;;;5.20;99.90;;;;;;5060522;28;20190;-42
2024/01/31 05:07:46;;;;;;;2.70;1.10;;;5.20;99.90;;;;;;5061003;28;20187;-41
2024/01/31 05:10:12;;;;;;;8.63;1.50;;;5.10;99.90;;;;;;5060264;28;20651;-39
2024/01/31 05:12:38;;;;;;;3.70;1.27;;;5.10;99.90;;;;;;5060389;28;20284;-44
2024/01/31 05:15:07;;;;;;;5.95;1.42;;;5.10;99.90;;;;;;5060141;28;20198;-40
2024/01/31 05:17:32;;;;;;;6.68;1.48;;;5.10;99.90;;;;;;5060762;28;20212;-46
2024/01/31 05:19:58;;;;;;;6.93;1.50;;;5.10;99.90;;;;;;5060592;28;20190;-45
2024/01/31 05:22:26;;;;;;;7.85;1.58;;;5.10;99.90;;;;;;5059885;28;20191;-40
2024/01/31 05:24:51;;;;;;;8.50;1.60;;;5.20;99.90;;;;;;5060006;28;20570;-43
2024/01/31 05:27:17;;;;;;;6.53;1.73;;;5.20;99.90;;;;;;5060594;28;20190;-48
2024/01/31 05:29:43;;;;;;;8.68;1.67;;;5.20;99.90;;;;;;5058837;28;20558;-44
2024/01/31 05:32:08;;;;;;;7.60;1.65;;;5.30;99.90;;;;;;5060510;28;20552;-51
2024/01/31 05:34:34;;;;;;;3.95;1.38;;;5.30;99.90;;;;;;5060426;28;20214;-43
2024/01/31 05:37:00;;;;;;;5.55;1.45;;;5.30;99.90;;;;;;5061108;28;20194;-47
2024/01/31 05:39:26;;;;;;;7.88;1.70;;;5.30;99.90;;;;;;5060601;28;20191;-40
2024/01/31 05:41:51;;;;;;;9.18;1.50;;;5.40;99.90;;;;;;5058582;28;20194;-41
2024/01/31 05:44:17;;;;;;;5.93;1.58;;;5.40;99.90;;;;;;5060637;28;20194;-48
2024/01/31 05:46:44;;;;;;;9.57;1.80;;;5.50;99.90;;;;;;5060403;28;20248;-45
2024/01/31 05:49:10;;;;;;;6.57;1.52;;;5.40;99.90;;;;;;5060899;28;20197;-45
2024/01/31 05:51:35;;;;;;;5.18;1.60;;;5.50;99.90;;;;;;5060460;28;20194;-42
2024/01/31 05:54:01;;;;;;;4.75;1.65;;;5.50;99.90;;;;;;5059073;28;20217;-45
2024/01/31 05:56:27;;;;;;;4.93;1.58;;;5.60;99.90;;;;;;5061106;28;20190;-44
2024/01/31 05:58:52;;;;;;;6.57;1.77;;;5.60;99.90;;;;;;5059177;28;20194;-43
2024/01/31 06:01:18;;;;;;;9.65;1.83;;;5.60;99.90;;;;;;5059658;28;20319;-48
2024/01/31 06:03:44;;;;;;;5.28;1.77;;;5.70;99.90;;;;;;5059847;28;20571;-44
2024/01/31 06:06:10;;;;;;;9.40;1.80;;;5.70;99.90;;;;;;5060172;28;20205;-42
2024/01/31 06:08:36;;;;;;;7.22;1.70;;;5.80;99.90;;;;;;5060249;28;20194;-43
2024/01/31 06:11:08;;;;;;;6.70;1.98;;;5.80;99.90;;;;;;5058285;28;20283;-43
2024/01/31 06:13:35;;;;;;;8.00;1.70;;;5.90;99.90;;;;;;5059557;28;20230;-44
2024/01/31 06:16:02;;;;;;;7.07;1.85;;;5.90;99.90;;;;;;5059718;28;20202;-47
2024/01/31 06:18:29;;;;;;;4.85;1.45;;;5.90;99.90;;;;;;5058775;28;20186;-42
2024/01/31 06:20:55;;;;;;;3.42;1.55;;;6.00;99.90;;;;;;5059646;28;20219;-41
2024/01/31 06:23:21;;;;;;;7.45;2.00;;;6.00;99.90;;;;;;5060689;28;20174;-47
2024/01/31 06:25:48;;;;;;;6.50;1.83;;;6.10;99.90;;;;;;5060203;28;20658;-41
2024/01/31 06:28:14;;;;;;;7.28;1.60;;;6.00;99.90;;;;;;5060281;28;20198;-42
2024/01/31 06:30:44;;;;;;;17.10;1.90;;;6.10;99.90;;;;;;5055346;28;20223;-50
2024/01/31 06:33:11;;;;;;;8.98;1.85;;;6.10;99.90;;;;;;5059561;28;20218;-46
2024/01/31 06:35:40;;;;;;;9.80;1.88;;;6.10;99.90;;;;;;5056658;28;20541;-46
2024/01/31 06:38:06;;;;;;;5.85;1.73;;;6.10;99.90;;;;;;5060956;28;20239;-42
2024/01/31 06:40:32;;;;;;;13.38;1.73;;;6.10;99.90;;;;;;5045511;28;20254;-42
2024/01/31 06:42:58;;;;;;;8.93;2.00;;;6.10;99.90;;;;;;5044490;28;20252;-42
2024/01/31 06:45:24;;;;;;;4.22;1.50;;;6.20;99.90;;;;;;5075059;28;20282;-45
2024/01/31 06:47:54;;;;;;;11.23;1.88;;;6.10;99.90;;;;;;5061521;28;20224;-45
2024/01/31 06:50:20;;;;;;;8.70;1.73;;;6.20;99.90;;;;;;5044275;28;20681;-44
2024/01/31 06:52:46;;;;;;;10.50;2.00;;;6.20;99.90;;;;;;5044440;28;20206;-44
2024/01/31 06:55:16;;;;;;;11.35;1.95;;;6.20;99.90;;;;;;5063008;28;20221;-49
2024/01/31 06:57:42;;;;;;;5.88;1.90;;;6.20;99.90;;;;;;5062705;28;20191;-44
2024/01/31 07:00:12;;;;;;;6.05;1.77;;;6.20;99.90;;;;;;5060633;28;20208;-41
2024/01/31 07:02:38;;;;;;;11.82;2.63;;;6.20;99.90;;;;;;5043761;28;20961;-47
2024/01/31 07:05:04;;;;;;;13.35;2.00;;;6.20;99.90;;;;;;5060091;28;20182;-46
2024/01/31 07:07:32;;;;;;;10.57;2.00;;;6.30;99.90;;;;;;5063188;28;20259;-43
2024/01/31 07:09:57;;;;;;;7.30;2.08;;;6.30;99.90;;;;;;5062640;28;20716;-47
2024/01/31 07:12:23;;;;;;;10.45;1.80;;;6.30;99.90;;;;;;5062312;28;20226;-44
2024/01/31 07:14:49;;;;;;;11.60;1.98;;;6.30;99.90;;;;;;5062445;28;20187;-52
2024/01/31 07:17:15;;;;;;;13.35;2.15;;;6.30;99.90;;;;;;5062497;28;20206;-46
2024/01/31 07:19:43;;;;;;;18.60;2.30;;;6.30;99.90;;;;;;5062299;28;20566;-47
2024/01/31 07:22:09;;;;;;;6.05;1.83;;;6.30;99.90;;;;;;5061399;28;20187;-42
2024/01/31 07:24:35;;;;;;;5.93;2.22;;;6.30;99.90;;;;;;5062057;28;20219;-45
2024/01/31 07:27:02;;;;;;;15.43;2.10;;;6.30;99.90;;;;;;5062860;28;20278;-43
2024/01/31 07:29:29;;;;;;;11.43;2.50;;;6.30;99.90;;;;;;5062529;28;20260;-42
2024/01/31 07:31:55;;;;;;;11.48;2.05;;;6.30;99.90;;;;;;5061850;28;20791;-40
2024/01/31 07:34:20;;;;;;;8.50;1.73;;;6.40;99.90;;;;;;5061909;28;20210;-43
2024/01/31 07:36:46;;;;;;;16.17;3.72;;;6.40;99.90;;;;;;5060495;28;20270;-43
2024/01/31 07:39:12;;;;;;;12.63;2.10;;;6.40;99.90;;;;;;5043951;28;20216;-38
2024/01/31 07:41:38;;;;;;;8.75;1.80;;;6.40;99.90;;;;;;5060601;28;20204;-42
2024/01/31 07:44:04;;;;;;;8.10;1.80;;;6.40;99.90;;;;;;5061265;28;20266;-45
2024/01/31 07:46:30;;;;;;;10.10;2.22;;;6.40;99.90;;;;;;5061988;28;20199;-42
2024/01/31 07:48:56;;;;;;;5.82;1.98;;;6.40;99.90;;;;;;5061791;28;20193;-43
2024/01/31 07:51:21;;;;;;;10.35;2.03;;;6.40;99.90;;;;;;5061295;28;20187;-42
2024/01/31 07:53:47;;;;;;;13.13;1.92;;;6.40;99.90;;;;;;5061429;28;20269;-50
2024/01/31 07:56:13;;;;;;;11.45;2.10;;;6.40;99.90;;;;;;5060171;28;20373;-40
2024/01/31 07:58:38;;;;;;;11.68;2.17;;;6.40;99.90;;;;;;5059820;28;20493;-42
2024/01/31 08:01:04;;;;;;;10.57;2.30;;;6.50;99.90;;;;;;5061335;28;20201;-43
2024/01/31 08:03:31;;;;;;;7.15;1.95;;;6.40;99.90;;;;;;5061831;28;20198;-46
2024/01/31 08:05:59;;;;;;;8.80;2.22;;;6.50;99.90;;;;;;5060992;28;20199;-40
2024/01/31 08:08:25;;;;;;;8.18;2.40;;;6.50;99.90;;;;;;5060616;28;20215;-43
2024/01/31 08:10:51;;;;;;;8.43;2.33;;;6.50;99.90;;;;;;5061614;28;20569;-41
2024/01/31 08:13:16;;;;;;;12.50;2.97;;;6.60;99.90;;;;;;5060245;28;20291;-49
2024/01/31 08:15:42;;;;;;;7.57;2.20;;;6.60;99.90;;;;;;5062075;28;20596;-44
2024/01/31 08:18:08;;;;;;;9.18;2.58;;;6.60;99.90;;;;;;5061196;28;20247;-45
2024/01/31 08:20:34;;;;;;;6.03;2.22;;;6.60;99.90;;;;;;5060892;28;20198;-43
2024/01/31 08:22:59;;;;;;;6.38;2.22;;;6.70;99.90;;;;;;5058065;28;20243;-42
2024/01/31 08:25:25;;;;;;;4.32;2.15;;;6.70;99.90;;;;;;5061062;28;20205;-40
2024/01/31 08:27:51;;;;;;;7.95;2.78;;;6.80;99.90;;;;;;5060830;28;20194;-46
2024/01/31 08:30:17;;;;;;;8.23;2.60;;;6.80;99.90;;;;;;5060486;28;20532;-46
2024/01/31 08:32:44;;;;;;;12.32;2.78;;;6.80;99.90;;;;;;5061423;28;20210;-47
2024/01/31 08:35:12;;;;;;;7.35;2.80;;;6.80;99.90;;;;;;5061131;28;20190;-46
2024/01/31 08:37:38;;;;;;;7.38;2.45;;;6.80;99.90;;;;;;5060841;28;20987;-43
2024/01/31 08:40:05;;;;;;;7.30;2.72;;;6.80;99.90;;;;;;5060730;28;20251;-40
2024/01/31 08:42:33;;;;;;;9.45;2.92;;;6.90;99.90;;;;;;5060314;28;20218;-49
2024/01/31 08:44:58;;;;;;;8.65;2.90;;;7.00;99.90;;;;;;5061214;28;20224;-43
2024/01/31 08:47:24;;;;;;;6.75;3.10;;;6.90;99.90;;;;;;5060846;28;20219;-49
2024/01/31 08:49:50;;;;;;;10.77;3.40;;;7.00;99.90;;;;;;5060850;28;20197;-40
2024/01/31 08:52:16;;;;;;;9.27;3.38;;;7.00;99.90;;;;;;5060709;28;20233;-43
2024/01/31 08:54:42;;;;;;;7.25;3.25;;;7.10;99.90;;;;;;5059297;28;20277;-44
2024/01/31 08:57:08;;;;;;;10.38;3.70;;;7.10;99.90;;;;;;5060115;28;20589;-41
2024/01/31 08:59:34;;;;;;;8.38;3.65;;;7.10;99.90;;;;;;5060081;28;20199;-43
2024/01/31 09:01:59;;;;;;;7.93;3.97;;;7.20;99.90;;;;;;5060878;28;20185;-50
2024/01/31 09:04:25;;;;;;;12.73;4.28;;;7.20;99.90;;;;;;5060373;28;20198;-41
2024/01/31 09:06:51;;;;;;;6.80;3.55;;;7.20;99.90;;;;;;5041606;28;20210;-43
2024/01/31 09:09:17;;;;;;;7.43;3.70;;;7.20;99.90;;;;;;5043015;28;20285;-49
2024/01/31 09:11:43;;;;;;;10.55;3.95;;;7.30;99.90;;;;;;5060314;28;20189;-46
2024/01/31 09:14:08;;;;;;;9.27;4.00;;;7.40;99.90;;;;;;5059536;28;20226;-43
2024/01/31 09:16:34;;;;;;;9.13;4.03;;;7.40;99.90;;;;;;5076509;28;20212;-47
2024/01/31 09:19:01;;;;;;;12.80;4.57;;;7.50;99.90;;;;;;5059100;28;20195;-44
2024/01/31 09:21:27;;;;;;;11.23;5.10;;;7.50;99.90;;;;;;5060300;28;20209;-43
2024/01/31 09:23:56;;;;;;;8.75;4.30;;;7.60;99.90;;;;;;5058117;28;20191;-41
2024/01/31 09:26:22;;;;;;;11.50;4.65;;;7.60;99.90;;;;;;5060422;28;20277;-49
2024/01/31 09:28:49;;;;;;;9.35;4.65;;;7.70;99.90;;;;;;5060491;28;20233;-42
2024/01/31 09:31:26;;;;;;;9.93;5.30;;;7.70;99.90;;;;;;5057632;28;20182;-45
2024/01/31 09:33:53;;;;;;;10.93;5.25;;;7.70;99.90;;;;;;5059720;28;20678;-38
2024/01/31 09:36:19;;;;;;;10.32;5.30;;;7.70;99.90;;;;;;5059809;28;20286;-41
2024/01/31 09:38:47;;;;;;;7.57;5.30;;;7.70;99.90;;;;;;5060114;28;20309;-46
2024/01/31 09:41:15;;;;;;;10.90;5.65;;;7.80;99.90;;;;;;5059857;28;20274;-45
2024/01/31 09:43:41;;;;;;;12.00;6.07;;;7.80;99.90;;;;;;5059730;28;20733;-41
2024/01/31 09:46:07;;;;;;;9.88;6.47;;;7.80;99.90;;;;;;5058163;28;20280;-42
2024/01/31 09:48:33;;;;;;;9.23;6.20;;;7.80;99.90;;;;;;5060302;28;20290;-44
2024/01/31 09:51:04;;;;;;;12.57;6.88;;;7.90;99.90;;;;;;5060311;28;21691;-44
2024/01/31 09:53:33;;;;;;;16.23;7.20;;;7.90;99.90;;;;;;5059570;28;20740;-45
2024/01/31 09:55:59;;;;;;;12.38;7.78;;;7.90;99.90;;;;;;5059929;28;20182;-43
2024/01/31 09:58:26;;;;;;;13.68;9.85;;;7.90;99.90;;;;;;5059160;28;20454;-45
2024/01/31 10:00:52;;;;;;;13.30;8.32;;;7.90;99.90;;;;;;5060059;28;20199;-43
2024/01/31 10:03:18;;;;;;;15.95;8.57;;;7.90;99.90;;;;;;5060090;28;21102;-42
2024/01/31 10:05:44;;;;;;;11.90;8.27;;;7.90;99.90;;;;;;5059923;28;20190;-43
2024/01/31 10:08:10;;;;;;;9.68;8.50;;;8.00;99.90;;;;;;5058377;28;20280;-50
2024/01/31 10:10:37;;;;;;;15.18;8.23;;;8.00;99.90;;;;;;5059780;28;20332;-42
2024/01/31 10:13:06;;;;;;;11.75;8.00;;;8.00;99.90;;;;;;5062950;28;20267;-44
2024/01/31 10:15:31;;;;;;;11.10;8.73;;;8.00;99.90;;;;;;5062917;28;20187;-49
2024/01/31 10:17:58;;;;;;;11.55;8.93;;;8.00;99.90;;;;;;5062213;28;20189;-46
2024/01/31 10:20:24;;;;;;;13.02;8.50;;;8.00;99.90;;;;;;5063887;28;20186;-48
2024/01/31 10:22:50;;;;;;;13.30;9.07;;;8.10;99.90;;;;;;5063446;28;20191;-41
2024/01/31 10:25:18;;;;;;;13.25;9.20;;;8.10;99.90;;;;;;5058931;28;20785;-50
2024/01/31 10:27:47;;;;;;;13.82;9.27;;;8.20;99.90;;;;;;5062637;28;20614;-45
2024/01/31 10:30:14;;;;;;;13.88;8.80;;;8.20;99.90;;;;;;5063565;28;20203;-42
2024/01/31 10:32:41;;;;;;;11.38;8.45;;;8.20;99.90;;;;;;5063605;28;20221;-49
2024/01/31 10:35:07;;;;;;;12.68;9.10;;;8.20;99.90;;;;;;5062229;28;20205;-41
2024/01/31 10:37:34;;;;;;;12.40;9.18;;;8.20;99.90;;;;;;5063296;28;20183;-43
2024/01/31 10:40:01;;;;;;;16.90;9.55;;;8.20;99.90;;;;;;5063317;28;20210;-40
2024/01/31 10:42:26;;;;;;;14.27;8.95;;;8.20;99.90;;;;;;5063411;28;20259;-49
2024/01/31 10:44:53;;;;;;;12.88;8.68;;;8.30;99.90;;;;;;5062899;28;20194;-41
2024/01/31 10:47:19;;;;;;;13.10;8.90;;;8.30;99.90;;;;;;5063246;28;20218;-48
2024/01/31 10:49:45;;;;;;;16.25;9.25;;;8.40;99.90;;;;;;5078555;28;20252;-40
2024/01/31 10:52:14;;;;;;;15.40;8.55;;;8.40;99.90;;;;;;5063097;28;20190;-41
2024/01/31 10:54:49;;;;;;;11.40;8.30;;;8.40;99.90;;;;;;5063594;28;20275;-45
2024/01/31 10:57:16;;;;;;;10.95;8.70;;;8.40;99.90;;;;;;5062829;28;20194;-42
2024/01/31 10:59:41;;;;;;;12.55;8.73;;;8.50;99.90;;;;;;5062605;28;20252;-45
2024/01/31 11:02:17;;;;;;;14.35;9.32;;;8.50;99.90;;;;;;5062261;28;20199;-44
2024/01/31 11:04:43;;;;;;;13.05;7.97;;;8.50;99.90;;;;;;5062519;28;20190;-49
2024/01/31 11:07:19;;;;;;;13.60;8.68;;;8.50;99.90;;;;;;5061944;28;20677;-48
2024/01/31 11:09:46;;;;;;;13.30;8.85;;;8.60;99.90;;;;;;5062800;28;20202;-46
2024/01/31 11:12:15;;;;;;;18.10;7.78;;;8.60;99.90;;;;;;5061405;28;20193;-43
2024/01/31 11:14:46;;;;;;;12.32;8.45;;;8.60;99.90;;;;;;5062095;28;20307;-50
2024/01/31 11:17:27;;;;;;;10.30;8.30;;;8.70;99.90;;;;;;5062318;28;20423;-48
2024/01/31 11:19:59;;;;;;;14.10;9.98;;;8.60;99.90;;;;;;5061923;28;20262;-45
2024/01/31 11:22:24;;;;;;;18.02;10.57;;;8.70;99.90;;;;;;5062008;28;20191;-46
2024/01/31 11:24:54;;;;;;;16.38;10.75;;;8.70;99.90;;;;;;5060058;28;20194;-45
2024/01/31 11:27:21;;;;;;;12.38;8.80;;;8.70;99.90;;;;;;5062475;28;20221;-42
2024/01/31 11:29:51;;;;;;;14.82;8.70;;;8.80;99.90;;;;;;5028971;28;20190;-40
2024/01/31 11:32:18;;;;;;;13.18;7.75;;;8.80;99.90;;;;;;5062406;28;20194;-48
2024/01/31 11:34:44;;;;;;;9.65;7.47;;;8.80;99.90;;;;;;5061496;28;20583;-50
2024/01/31 11:37:10;;;;;;;14.38;8.02;;;8.90;99.90;;;;;;5062420;28;20187;-43
2024/01/31 11:39:36;;;;;;;12.18;7.57;;;8.90;99.90;;;;;;5061496;28;20248;-44
2024/01/31 11:42:02;;;;;;;11.48;6.93;;;8.90;99.90;;;;;;5062598;28;20194;-43
2024/01/31 11:44:31;;;;;;;10.05;7.25;;;8.90;99.90;;;;;;5062237;28;20247;-45
2024/01/31 11:46:57;;;;;;;9.05;6.20;;;8.90;99.90;;;;;;5061647;28;20639;-39
2024/01/31 11:49:23;;;;;;;11.57;6.35;;;9.00;99.90;;;;;;5061717;28;20202;-42
2024/01/31 11:51:49;;;;;;;11.07;6.05;;;9.00;99.90;;;;;;5061599;28;20533;-42
2024/01/31 11:54:15;;;;;;;8.77;6.03;;;9.00;99.90;;;;;;5061801;28;20226;-43
2024/01/31 11:56:42;;;;;;;9.77;6.22;;;9.00;99.90;;;;;;5061419;28;20214;-46
2024/01/31 11:59:08;;;;;;;9.80;6.25;;;9.00;99.90;;;;;;5061115;28;20357;-44
2024/01/31 12:01:34;;;;;;;10.88;5.78;;;9.00;99.90;;;;;;5061497;28;20186;-45
2024/01/31 12:04:04;;;;;;;13.52;6.45;;;9.00;99.90;;;;;;5061323;28;20724;-49
2024/01/31 12:06:31;;;;;;;9.10;6.28;;;9.00;99.90;;;;;;5061030;28;20228;-42
2024/01/31 12:08:57;;;;;;;9.52;6.50;;;9.00;99.90;;;;;;5061376;28;20264;-42
2024/01/31 12:11:22;;;;;;;7.57;5.97;;;9.00;99.90;;;;;;5060992;28;20190;-45
2024/01/31 12:13:49;;;;;;;10.82;6.72;;;9.00;99.90;;;;;;5060350;28;20299;-45
2024/01/31 12:16:15;;;;;;;8.20;6.47;;;8.90;99.90;;;;;;5059438;28;20191;-41
2024/01/31 12:18:40;;;;;;;8.68;6.38;;;8.90;99.90;;;;;;5059178;28;20191;-45
2024/01/31 12:21:10;;;;;;;9.00;6.60;;;8.90;99.90;;;;;;5061515;28;20273;-46
2024/01/31 12:23:36;;;;;;;11.30;6.97;;;8.90;99.90;;;;;;5061049;28;20257;-44
2024/01/31 12:26:02;;;;;;;12.07;6.45;;;8.90;99.90;;;;;;5061390;28;20562;-40
2024/01/31 12:28:28;;;;;;;14.50;7.38;;;8.90;99.90;;;;;;5059615;28;20201;-41
2024/01/31 12:30:54;;;;;;;9.32;6.25;;;8.80;99.90;;;;;;5060508;28;20186;-46
2024/01/31 12:33:22;;;;;;;10.80;6.53;;;8.80;99.90;;;;;;5060753;28;20202;-47
2024/01/31 12:35:48;;;;;;;8.25;6.53;;;8.80;99.90;;;;;;5059748;28;20186;-50
2024/01/31 12:38:14;;;;;;;8.88;6.60;;;8.80;99.90;;;;;;5060573;28;20193;-41
2024/01/31 12:40:40;;;;;;;8.70;6.35;;;8.80;99.90;;;;;;5061285;28;20235;-39
2024/01/31 12:43:05;;;;;;;9.70;5.90;;;8.80;99.90;;;;;;5060208;28;20236;-40
2024/01/31 12:45:33;;;;;;;8.50;6.38;;;8.80;99.90;;;;;;5060372;28;20174;-53
2024/01/31 12:48:00;;;;;;;14.25;9.15;;;8.80;99.90;;;;;;5059825;28;20540;-44